Time;durP1;ratioP1;P1;durP2;ratioP2;P2;SDS_P1;SDS_P2;PMS_P1;PMS_P2;Temp;Humidity;BMP_temperature;BMP_pressure;BME280_temperature;BME280_humidity;BME280_pressure;Samples;Min_cycle;Max_cycle;Signal;HPM_P1;HPM_P2
2021/05/03 00:02:00;;;;;;;7.47;2.70;;;23.50;35.60;;;;;;5072646;28;20024;-69
2021/05/03 00:04:26;;;;;;;9.98;2.75;;;23.40;35.50;;;;;;5064430;28;20116;-69
2021/05/03 00:06:52;;;;;;;15.90;2.40;;;23.40;35.60;;;;;;5075207;28;20074;-69
2021/05/03 00:09:19;;;;;;;7.22;2.88;;;23.40;35.70;;;;;;5075410;28;20024;-69
2021/05/03 00:11:45;;;;;;;13.48;3.55;;;23.40;35.70;;;;;;5075567;28;20074;-69
2021/05/03 00:14:12;;;;;;;7.63;2.22;;;23.30;36.00;;;;;;5070434;28;20024;-70
2021/05/03 00:16:38;;;;;;;11.90;2.97;;;23.20;36.10;;;;;;5068884;28;20374;-70
2021/05/03 00:19:04;;;;;;;15.15;3.78;;;23.20;35.70;;;;;;5076185;28;20169;-70
2021/05/03 00:21:31;;;;;;;7.80;2.47;;;23.10;36.20;;;;;;5076153;28;20020;-70
2021/05/03 00:23:58;;;;;;;9.57;3.70;;;23.00;36.50;;;;;;5088435;28;20028;-69
2021/05/03 00:26:24;;;;;;;12.15;3.80;;;23.00;36.80;;;;;;5095997;28;20027;-69
2021/05/03 00:28:51;;;;;;;11.43;3.17;;;23.00;36.50;;;;;;5096247;28;20024;-69
2021/05/03 00:31:18;;;;;;;13.63;3.50;;;23.00;36.30;;;;;;5091785;28;20446;-69
2021/05/03 00:33:44;;;;;;;10.90;2.58;;;22.90;36.60;;;;;;5070460;28;20465;-69
2021/05/03 00:36:11;;;;;;;16.08;3.92;;;22.80;36.60;;;;;;5061844;28;20469;-69
2021/05/03 00:38:37;;;;;;;9.95;2.95;;;22.70;37.00;;;;;;5070362;28;20029;-69
2021/05/03 00:41:04;;;;;;;13.15;3.47;;;22.70;36.90;;;;;;5075741;28;20385;-69
2021/05/03 00:43:31;;;;;;;11.38;3.15;;;22.60;37.50;;;;;;5073619;28;20017;-69
2021/05/03 00:45:57;;;;;;;9.68;3.58;;;22.60;37.50;;;;;;5074067;28;20020;-70
2021/05/03 00:48:24;;;;;;;17.02;4.32;;;22.60;37.40;;;;;;5081730;28;20070;-69
2021/05/03 00:50:51;;;;;;;15.00;4.60;;;22.60;37.70;;;;;;5071813;28;20016;-69
2021/05/03 00:53:18;;;;;;;11.05;3.08;;;22.50;37.90;;;;;;5073474;28;20016;-69
2021/05/03 00:55:45;;;;;;;13.82;3.45;;;22.40;38.00;;;;;;5075479;28;20025;-69
2021/05/03 00:58:12;;;;;;;12.10;4.18;;;22.40;37.80;;;;;;5075305;28;20122;-70
2021/05/03 01:00:39;;;;;;;10.38;2.78;;;22.40;37.80;;;;;;5075545;28;20017;-69
2021/05/03 01:03:06;;;;;;;12.82;4.03;;;22.20;38.00;;;;;;5075332;28;20187;-69
2021/05/03 01:05:34;;;;;;;12.77;2.97;;;22.20;38.30;;;;;;5075455;28;20025;-70
2021/05/03 01:08:02;;;;;;;11.40;3.22;;;22.20;38.40;;;;;;5074946;28;20048;-69
2021/05/03 01:10:29;;;;;;;13.68;5.18;;;22.10;38.50;;;;;;5066977;28;20024;-69
2021/05/03 01:12:57;;;;;;;19.42;4.05;;;22.00;38.70;;;;;;5064768;28;20036;-69
2021/05/03 01:15:24;;;;;;;13.10;4.13;;;21.90;38.80;;;;;;5067309;28;20042;-69
2021/05/03 01:17:57;;;;;;;13.23;3.63;;;21.90;39.00;;;;;;5070797;28;20046;-69
2021/05/03 01:20:29;;;;;;;12.55;3.85;;;21.60;39.20;;;;;;5067216;28;20025;-69
2021/05/03 01:22:57;;;;;;;16.73;3.55;;;21.40;39.80;;;;;;5064654;28;20032;-69
2021/05/03 01:25:31;;;;;;;17.00;3.55;;;21.20;40.00;;;;;;5067197;28;20536;-69
2021/05/03 01:27:58;;;;;;;13.60;4.20;;;21.20;40.40;;;;;;5063835;28;20040;-69
2021/05/03 01:30:37;;;;;;;8.98;3.17;;;21.00;40.60;;;;;;5072208;28;20123;-69
2021/05/03 01:33:06;;;;;;;14.93;2.85;;;20.90;40.90;;;;;;5074669;28;20446;-69
2021/05/03 01:35:33;;;;;;;14.25;4.40;;;20.90;41.10;;;;;;5074383;28;20029;-68
2021/05/03 01:38:00;;;;;;;13.32;3.25;;;20.80;41.10;;;;;;5071943;28;20024;-69
2021/05/03 01:40:29;;;;;;;16.65;4.18;;;20.70;41.60;;;;;;5072774;28;20013;-69
2021/05/03 01:42:56;;;;;;;15.38;3.13;;;20.60;41.70;;;;;;5072084;28;20052;-69
2021/05/03 01:45:25;;;;;;;15.15;3.63;;;20.70;41.50;;;;;;5078774;28;20036;-69
2021/05/03 01:47:52;;;;;;;18.23;3.40;;;20.60;41.80;;;;;;5072388;28;20039;-69
2021/05/03 01:50:23;;;;;;;13.18;2.65;;;20.60;41.60;;;;;;5073482;28;20436;-69
2021/05/03 01:52:50;;;;;;;10.05;3.00;;;20.50;42.00;;;;;;5063618;28;20346;-69
2021/05/03 01:55:18;;;;;;;7.55;2.72;;;20.60;41.60;;;;;;5071166;28;20029;-68
2021/05/03 01:57:45;;;;;;;10.13;2.70;;;20.60;41.70;;;;;;5057846;28;20351;-69
2021/05/03 02:00:13;;;;;;;14.82;3.83;;;20.50;42.00;;;;;;5063251;28;20025;-69
2021/05/03 02:02:44;;;;;;;13.02;3.53;;;20.50;42.00;;;;;;5069143;28;20029;-68
2021/05/03 02:05:15;;;;;;;13.35;3.38;;;20.40;42.20;;;;;;5070517;28;20024;-69
2021/05/03 02:07:42;;;;;;;12.27;2.97;;;20.50;42.20;;;;;;5071725;28;20687;-73
2021/05/03 02:10:08;;;;;;;9.10;2.75;;;20.30;42.30;;;;;;5077825;28;20330;-71
2021/05/03 02:12:38;;;;;;;15.35;3.67;;;20.30;42.40;;;;;;5082265;28;20441;-70
2021/05/03 02:15:07;;;;;;;17.70;4.05;;;20.10;42.60;;;;;;5074266;28;20067;-71
2021/05/03 02:17:34;;;;;;;17.00;3.78;;;20.10;42.80;;;;;;5068404;28;20024;-70
2021/05/03 02:20:00;;;;;;;19.42;4.25;;;20.00;42.80;;;;;;5073155;28;20057;-72
2021/05/03 02:22:27;;;;;;;17.73;4.95;;;20.00;43.30;;;;;;5074081;28;20457;-71
2021/05/03 02:24:53;;;;;;;15.00;3.80;;;19.80;43.60;;;;;;5069285;28;20083;-70
2021/05/03 02:27:20;;;;;;;16.55;3.90;;;19.70;43.70;;;;;;5068002;28;20473;-69
2021/05/03 02:29:46;;;;;;;23.48;4.40;;;19.60;43.70;;;;;;5072640;28;20040;-71
2021/05/03 02:32:12;;;;;;;16.48;4.35;;;19.40;44.20;;;;;;5072865;28;20040;-68
2021/05/03 02:34:39;;;;;;;15.88;4.18;;;19.30;44.80;;;;;;5062880;28;20028;-69
2021/05/03 02:37:05;;;;;;;23.55;5.80;;;19.30;45.00;;;;;;5068348;28;20025;-68
2021/05/03 02:39:31;;;;;;;15.20;3.70;;;19.20;44.90;;;;;;5070670;28;20025;-68
2021/05/03 02:41:58;;;;;;;18.73;4.25;;;19.10;45.20;;;;;;5076657;28;20032;-68
2021/05/03 02:44:24;;;;;;;16.17;4.57;;;19.00;45.40;;;;;;5076126;28;20060;-68
2021/05/03 02:46:51;;;;;;;20.00;6.50;;;18.80;45.30;;;;;;5071304;28;20035;-68
2021/05/03 02:49:18;;;;;;;19.02;4.55;;;18.90;45.70;;;;;;5072897;28;20090;-68
2021/05/03 02:51:44;;;;;;;16.30;4.22;;;18.70;45.70;;;;;;5070577;28;20108;-69
2021/05/03 02:54:11;;;;;;;23.30;4.88;;;18.60;46.40;;;;;;5071350;28;20035;-69
2021/05/03 02:56:37;;;;;;;14.00;3.75;;;18.40;46.60;;;;;;5065927;28;20024;-68
2021/05/03 02:59:04;;;;;;;17.38;4.75;;;18.40;46.50;;;;;;5074395;28;20107;-68
2021/05/03 03:01:30;;;;;;;16.88;3.95;;;18.30;46.70;;;;;;5075824;28;20024;-68
2021/05/03 03:03:56;;;;;;;17.48;5.00;;;18.20;47.10;;;;;;5077413;28;20035;-69
2021/05/03 03:06:25;;;;;;;15.07;4.47;;;18.30;47.00;;;;;;5077142;28;20031;-69
2021/05/03 03:08:52;;;;;;;19.95;4.28;;;18.10;47.90;;;;;;5076348;28;20086;-69
2021/05/03 03:11:20;;;;;;;17.92;4.03;;;18.10;47.40;;;;;;5077199;28;20115;-68
2021/05/03 03:13:47;;;;;;;22.08;4.30;;;18.10;47.60;;;;;;5075416;28;20028;-68
2021/05/03 03:16:16;;;;;;;15.88;5.13;;;18.00;48.20;;;;;;5073611;28;20032;-68
2021/05/03 03:18:42;;;;;;;24.77;6.03;;;18.10;48.10;;;;;;5075181;28;20123;-68
2021/05/03 03:21:09;;;;;;;17.58;5.15;;;17.70;48.70;;;;;;5074894;28;20097;-68
2021/05/03 03:23:35;;;;;;;25.05;6.15;;;17.60;48.60;;;;;;5071602;28;20145;-68
2021/05/03 03:26:02;;;;;;;17.92;4.95;;;17.50;48.80;;;;;;5074184;28;20389;-69
2021/05/03 03:28:28;;;;;;;23.80;4.88;;;17.60;49.70;;;;;;5072950;28;20020;-68
2021/05/03 03:30:54;;;;;;;25.55;6.88;;;17.70;49.00;;;;;;5075460;28;20032;-68
2021/05/03 03:33:21;;;;;;;20.23;6.22;;;17.60;48.60;;;;;;5079026;28;20016;-68
2021/05/03 03:35:47;;;;;;;22.00;5.25;;;17.40;49.60;;;;;;5075671;28;20107;-68
2021/05/03 03:38:14;;;;;;;28.75;5.72;;;17.40;48.40;;;;;;5075220;28;20035;-68
2021/05/03 03:40:40;;;;;;;29.35;5.97;;;17.30;49.90;;;;;;5076091;28;20028;-68
2021/05/03 03:43:06;;;;;;;28.95;7.32;;;17.40;50.30;;;;;;5075840;28;20022;-69
2021/05/03 03:45:33;;;;;;;27.98;8.63;;;17.20;49.80;;;;;;5073293;28;20450;-68
2021/05/03 03:47:59;;;;;;;16.92;5.30;;;17.10;50.10;;;;;;5078513;28;20404;-68
2021/05/03 03:50:26;;;;;;;20.10;6.85;;;17.00;50.90;;;;;;5075994;28;20457;-68
2021/05/03 03:52:52;;;;;;;21.80;5.97;;;16.70;51.30;;;;;;5076570;28;20035;-68
2021/05/03 03:55:18;;;;;;;20.35;6.30;;;16.60;51.10;;;;;;5073868;28;20024;-68
2021/05/03 03:57:45;;;;;;;23.75;6.25;;;16.60;51.30;;;;;;5076549;28;20016;-68
2021/05/03 04:00:12;;;;;;;37.60;8.07;;;16.60;51.50;;;;;;5079866;28;20020;-68
2021/05/03 04:02:39;;;;;;;27.73;6.30;;;16.80;51.10;;;;;;5076075;28;20024;-68
2021/05/03 04:05:14;;;;;;;25.13;6.88;;;16.60;51.10;;;;;;5076313;28;20032;-68
2021/05/03 04:07:58;;;;;;;17.38;5.70;;;16.50;51.70;;;;;;5075954;28;20094;-68
2021/05/03 04:26:38;;;;;;;27.45;5.55;;;16.40;53.40;;;;;;5041809;28;20036;-68
2021/05/03 04:29:04;;;;;;;22.05;6.28;;;16.50;53.90;;;;;;5073379;28;20020;-68
2021/05/03 04:31:31;;;;;;;26.08;5.95;;;16.40;53.50;;;;;;5067178;28;20039;-68
2021/05/03 04:33:57;;;;;;;26.80;5.45;;;16.30;53.60;;;;;;5067792;28;20416;-68
2021/05/03 04:36:24;;;;;;;18.35;5.13;;;16.00;54.20;;;;;;5074949;28;20503;-68
2021/05/03 04:38:50;;;;;;;29.15;6.63;;;16.00;53.80;;;;;;5073646;28;20074;-68
2021/05/03 04:41:17;;;;;;;29.17;5.45;;;16.00;54.20;;;;;;5067952;28;20104;-69
2021/05/03 04:43:44;;;;;;;23.35;6.45;;;15.90;54.10;;;;;;5078244;28;20021;-68
2021/05/03 04:46:10;;;;;;;33.92;6.43;;;15.80;54.30;;;;;;5075118;28;20109;-68
2021/05/03 04:48:37;;;;;;;27.10;7.13;;;15.90;54.30;;;;;;5092610;28;20326;-68
2021/05/03 04:51:04;;;;;;;29.15;5.90;;;15.90;53.30;;;;;;5086219;28;20343;-68
2021/05/03 04:53:30;;;;;;;26.27;5.85;;;16.00;53.50;;;;;;5070969;28;20033;-68
2021/05/03 04:55:56;;;;;;;26.45;7.60;;;15.90;53.40;;;;;;5073146;28;20443;-68
2021/05/03 04:58:23;;;;;;;24.33;5.53;;;15.90;53.40;;;;;;5083077;28;20426;-68
2021/05/03 05:00:49;;;;;;;18.48;5.63;;;15.90;54.60;;;;;;5075361;28;20434;-68
2021/05/03 05:03:16;;;;;;;20.95;5.43;;;15.80;54.20;;;;;;5090401;28;20042;-68
2021/05/03 05:05:45;;;;;;;27.00;6.00;;;15.80;52.90;;;;;;5078834;28;20509;-68
2021/05/03 05:08:11;;;;;;;31.30;6.05;;;15.80;54.20;;;;;;5074750;28;20033;-68
2021/05/03 05:10:38;;;;;;;19.52;6.13;;;15.80;53.10;;;;;;5074530;28;20032;-68
2021/05/03 05:13:04;;;;;;;26.35;5.75;;;15.90;54.00;;;;;;5074044;28;20052;-68
2021/05/03 05:15:31;;;;;;;27.17;7.40;;;15.80;54.90;;;;;;5071325;28;20477;-68
2021/05/03 05:17:58;;;;;;;17.23;4.40;;;15.70;55.10;;;;;;5073803;28;20040;-68
2021/05/03 05:20:24;;;;;;;23.02;6.15;;;15.70;54.40;;;;;;5072801;28;20024;-68
2021/05/03 05:22:51;;;;;;;22.65;5.93;;;15.70;53.20;;;;;;5079250;28;20017;-68
2021/05/03 05:25:17;;;;;;;26.98;5.97;;;15.70;54.30;;;;;;5074375;28;20033;-68
2021/05/03 05:27:44;;;;;;;24.80;7.20;;;15.70;53.90;;;;;;5074497;28;20028;-68
2021/05/03 05:30:11;;;;;;;19.02;5.00;;;15.60;55.10;;;;;;5072787;28;20016;-68
2021/05/03 05:32:37;;;;;;;23.50;5.55;;;15.60;54.70;;;;;;5073495;28;20033;-68
2021/05/03 05:35:04;;;;;;;17.63;5.45;;;15.40;56.20;;;;;;5074214;28;20029;-68
2021/05/03 05:37:31;;;;;;;9.90;3.90;;;15.50;55.50;;;;;;5072505;28;20099;-68
2021/05/03 05:39:57;;;;;;;21.75;5.25;;;15.50;54.90;;;;;;5070820;28;20056;-68
2021/05/03 05:42:23;;;;;;;21.60;4.75;;;15.50;54.90;;;;;;5073359;28;20025;-68
2021/05/03 05:44:50;;;;;;;26.75;5.50;;;15.30;56.20;;;;;;5072599;28;20543;-68
2021/05/03 05:47:16;;;;;;;23.00;5.50;;;15.40;54.70;;;;;;5073804;28;20094;-68
2021/05/03 05:49:43;;;;;;;21.88;6.13;;;15.50;53.20;;;;;;5074580;28;20075;-68
2021/05/03 05:52:09;;;;;;;25.23;7.28;;;15.40;54.30;;;;;;5072562;28;20034;-68
2021/05/03 05:54:35;;;;;;;23.05;5.70;;;15.40;53.80;;;;;;5073195;28;20043;-68
2021/05/03 05:57:02;;;;;;;14.73;4.40;;;15.40;53.30;;;;;;5073206;28;20055;-68
2021/05/03 05:59:28;;;;;;;19.92;5.03;;;15.40;54.90;;;;;;5073201;28;20058;-68
2021/05/03 06:01:55;;;;;;;18.33;4.68;;;15.20;57.00;;;;;;5072894;28;20446;-68
2021/05/03 06:04:21;;;;;;;15.63;4.00;;;15.10;55.90;;;;;;5073257;28;20024;-68
2021/05/03 06:06:47;;;;;;;25.90;6.97;;;15.20;56.00;;;;;;5073288;28;20342;-68
2021/05/03 06:09:14;;;;;;;25.83;4.85;;;15.20;56.80;;;;;;5073415;28;20033;-68
2021/05/03 06:11:40;;;;;;;16.85;4.90;;;15.30;55.50;;;;;;5073040;28;20048;-68
2021/05/03 06:14:06;;;;;;;19.83;5.95;;;15.20;55.50;;;;;;5071552;28;20024;-68
2021/05/03 06:16:33;;;;;;;33.83;10.65;;;15.20;55.50;;;;;;5072097;28;20024;-68
2021/05/03 06:18:59;;;;;;;16.10;5.15;;;15.20;55.70;;;;;;5070923;28;20454;-68
2021/05/03 06:21:26;;;;;;;28.05;9.02;;;15.20;55.30;;;;;;5074723;28;20150;-68
2021/05/03 06:23:52;;;;;;;23.17;5.30;;;15.20;55.20;;;;;;5074046;28;20024;-68
2021/05/03 06:26:19;;;;;;;26.95;5.38;;;15.20;55.10;;;;;;5072826;28;20020;-68
2021/05/03 06:28:45;;;;;;;24.73;5.70;;;15.20;54.80;;;;;;5073672;28;20035;-68
2021/05/03 06:31:11;;;;;;;30.73;7.95;;;15.20;55.40;;;;;;5072516;28;20029;-68
2021/05/03 06:33:39;;;;;;;22.88;5.30;;;15.20;56.60;;;;;;5078455;28;20028;-68
2021/05/03 06:36:06;;;;;;;27.33;6.95;;;15.20;56.10;;;;;;5063779;28;20188;-68
2021/05/03 06:38:32;;;;;;;21.13;5.03;;;15.10;57.40;;;;;;5065420;28;20025;-68
2021/05/03 06:40:58;;;;;;;23.65;6.93;;;15.10;55.10;;;;;;5069469;28;20033;-68
2021/05/03 06:43:25;;;;;;;28.55;6.38;;;15.10;56.00;;;;;;5071930;28;20373;-68
2021/05/03 06:45:51;;;;;;;31.40;5.72;;;15.00;57.00;;;;;;5063328;28;20020;-68
2021/05/03 06:48:18;;;;;;;32.92;7.30;;;15.00;55.90;;;;;;5072050;28;20025;-68
2021/05/03 06:50:45;;;;;;;22.05;6.10;;;15.00;57.10;;;;;;5068724;28;20056;-68
2021/05/03 06:53:13;;;;;;;20.23;5.22;;;15.10;55.90;;;;;;5084247;28;20052;-68
2021/05/03 06:55:40;;;;;;;23.00;4.75;;;15.10;55.70;;;;;;5077721;28;20032;-69
2021/05/03 06:58:06;;;;;;;28.25;5.68;;;15.10;54.00;;;;;;5064243;28;20016;-68
2021/05/03 07:00:38;;;;;;;25.27;6.60;;;15.10;55.60;;;;;;5069941;28;20017;-68
2021/05/03 07:03:05;;;;;;;23.50;5.47;;;15.20;55.30;;;;;;5070328;28;20108;-69
2021/05/03 07:05:32;;;;;;;32.08;6.00;;;15.30;55.70;;;;;;5073632;28;20489;-68
2021/05/03 07:07:59;;;;;;;37.55;7.80;;;15.20;55.20;;;;;;5077114;28;20040;-68
2021/05/03 07:10:25;;;;;;;24.70;5.07;;;15.20;55.10;;;;;;5073289;28;20036;-68
2021/05/03 07:12:52;;;;;;;23.55;5.43;;;15.30;56.30;;;;;;5072406;28;20032;-68
2021/05/03 07:15:19;;;;;;;24.55;5.90;;;15.20;55.90;;;;;;5072551;28;20021;-68
2021/05/03 07:17:46;;;;;;;19.60;6.13;;;15.00;55.40;;;;;;5067749;28;20219;-68
2021/05/03 07:20:13;;;;;;;27.23;5.65;;;14.90;56.90;;;;;;5070477;28;20044;-68
2021/05/03 07:22:40;;;;;;;22.15;5.10;;;15.20;56.30;;;;;;5071481;28;20146;-68
2021/05/03 07:25:09;;;;;;;21.85;5.50;;;15.20;57.00;;;;;;5077375;28;20485;-68
2021/05/03 07:27:37;;;;;;;24.23;6.53;;;15.20;56.20;;;;;;5071161;28;20488;-68
2021/05/03 07:30:08;;;;;;;21.88;4.80;;;15.40;56.70;;;;;;5071547;28;20158;-68
2021/05/03 07:32:39;;;;;;;20.67;5.63;;;15.50;56.90;;;;;;5066556;28;20408;-68
2021/05/03 07:35:07;;;;;;;21.38;5.47;;;15.20;55.60;;;;;;5071084;28;20114;-68
2021/05/03 07:37:34;;;;;;;17.27;5.47;;;15.00;56.70;;;;;;5070177;28;20489;-68
2021/05/03 07:40:00;;;;;;;18.08;5.55;;;15.00;57.00;;;;;;5070898;28;20021;-68
2021/05/03 07:42:27;;;;;;;28.35;6.07;;;15.00;55.80;;;;;;5073949;28;20521;-68
2021/05/03 07:44:53;;;;;;;24.50;4.85;;;15.00;56.60;;;;;;5074466;28;20029;-68
2021/05/03 07:47:20;;;;;;;15.88;6.03;;;14.90;56.80;;;;;;5074162;28;20056;-68
2021/05/03 07:49:46;;;;;;;15.60;3.92;;;15.00;56.10;;;;;;5075722;28;20028;-68
2021/05/03 07:52:12;;;;;;;16.98;4.97;;;15.10;56.10;;;;;;5075497;28;20029;-68
2021/05/03 07:54:39;;;;;;;28.23;7.13;;;15.10;56.50;;;;;;5076248;28;20033;-68
2021/05/03 07:57:05;;;;;;;23.83;5.18;;;15.10;56.20;;;;;;5074218;28;20021;-68
2021/05/03 07:59:32;;;;;;;31.08;8.20;;;15.00;55.90;;;;;;5070516;28;20021;-68
2021/05/03 08:01:58;;;;;;;21.70;5.13;;;15.00;56.50;;;;;;5074497;28;20035;-68
2021/05/03 08:04:25;;;;;;;28.88;5.47;;;15.10;56.60;;;;;;5075376;28;20107;-68
2021/05/03 08:06:57;;;;;;;29.02;7.68;;;15.10;56.50;;;;;;5074632;28;20406;-68
2021/05/03 08:09:26;;;;;;;24.55;6.43;;;15.10;55.80;;;;;;5076359;28;20112;-68
2021/05/03 08:11:54;;;;;;;24.45;5.57;;;15.20;56.00;;;;;;5074573;28;20032;-68
2021/05/03 08:14:22;;;;;;;23.92;5.00;;;15.10;56.00;;;;;;5068229;28;20020;-68
2021/05/03 08:16:51;;;;;;;25.23;5.47;;;14.90;56.90;;;;;;5075159;28;20028;-68
2021/05/03 08:19:18;;;;;;;27.75;6.75;;;14.90;56.40;;;;;;5072690;28;20027;-68
2021/05/03 08:21:45;;;;;;;21.55;5.18;;;14.90;55.80;;;;;;5074575;28;20078;-69
2021/05/03 08:24:11;;;;;;;19.73;6.07;;;14.90;56.70;;;;;;5073539;28;20043;-69
2021/05/03 08:26:38;;;;;;;26.65;5.18;;;14.80;55.80;;;;;;5075635;28;20021;-68
2021/05/03 08:29:05;;;;;;;17.95;4.68;;;14.80;56.50;;;;;;5075499;28;20416;-68
2021/05/03 08:31:32;;;;;;;26.30;5.68;;;14.70;56.90;;;;;;5079064;28;20042;-68
2021/05/03 08:33:58;;;;;;;19.15;4.45;;;14.70;56.90;;;;;;5082882;28;20434;-68
2021/05/03 08:36:25;;;;;;;15.77;5.60;;;14.60;57.60;;;;;;5077873;28;20029;-68
2021/05/03 08:38:51;;;;;;;14.98;3.90;;;14.60;57.10;;;;;;5073770;28;20036;-68
2021/05/03 08:41:17;;;;;;;18.90;5.35;;;14.60;57.40;;;;;;5074573;28;20028;-67
2021/05/03 08:43:47;;;;;;;26.73;5.15;;;14.60;57.20;;;;;;5075660;28;20040;-68
2021/05/03 08:46:25;;;;;;;25.60;5.15;;;14.50;57.10;;;;;;5078292;28;20353;-67
2021/05/03 08:49:14;;;;;;;28.88;6.18;;;14.50;56.70;;;;;;5075036;28;20457;-67
2021/05/03 08:56:53;;;;;;;21.30;6.90;;;14.40;55.80;;;;;;5072315;28;20019;-68
2021/05/03 08:59:19;;;;;;;21.13;6.50;;;14.50;57.40;;;;;;5074475;28;20446;-67
2021/05/03 09:01:48;;;;;;;28.58;5.43;;;14.30;57.50;;;;;;5073496;28;20541;-67
2021/05/03 09:04:15;;;;;;;26.98;6.60;;;14.20;56.40;;;;;;5074988;28;20044;-67
2021/05/03 09:07:06;;;;;;;22.90;6.13;;;14.20;56.30;;;;;;5072996;28;20357;-69
2021/05/03 09:09:36;;;;;;;14.32;4.88;;;14.00;57.50;;;;;;5074248;28;20044;-67
2021/05/03 09:12:11;;;;;;;24.52;6.35;;;13.90;57.90;;;;;;5074105;28;20020;-69
2021/05/03 09:15:04;;;;;;;22.13;6.15;;;14.00;57.40;;;;;;5073333;28;20016;-69
2021/05/03 09:17:31;;;;;;;25.02;6.90;;;14.10;56.90;;;;;;5072903;28;20025;-69
2021/05/03 09:20:05;;;;;;;33.95;8.48;;;14.10;57.00;;;;;;5073930;28;20020;-69
2021/05/03 09:22:41;;;;;;;21.40;6.80;;;14.10;57.60;;;;;;5074153;28;20021;-68
2021/05/03 09:25:14;;;;;;;26.67;5.85;;;14.00;57.70;;;;;;5071847;28;20032;-69
2021/05/03 09:27:41;;;;;;;30.98;5.38;;;14.00;57.10;;;;;;5070710;28;20466;-68
2021/05/03 09:30:08;;;;;;;25.42;5.75;;;13.90;58.40;;;;;;5072066;28;20408;-69
2021/05/03 09:32:34;;;;;;;31.70;6.15;;;13.90;58.00;;;;;;5071618;28;20055;-69
2021/05/03 09:35:01;;;;;;;15.27;4.10;;;13.80;57.40;;;;;;5072342;28;20074;-69
2021/05/03 09:37:30;;;;;;;11.25;4.25;;;13.80;59.10;;;;;;5072554;28;20021;-69
2021/05/03 09:39:59;;;;;;;17.00;4.43;;;13.70;59.20;;;;;;5073122;28;20031;-69
2021/05/03 09:42:42;;;;;;;19.60;6.28;;;13.70;58.40;;;;;;5067280;28;20060;-69
2021/05/03 09:45:17;;;;;;;27.15;4.88;;;13.70;57.70;;;;;;5073508;28;20073;-69
2021/05/03 09:47:45;;;;;;;20.83;5.63;;;13.90;58.70;;;;;;5071766;28;20485;-69
2021/05/03 09:50:15;;;;;;;25.10;5.60;;;13.80;59.00;;;;;;5073288;28;20028;-69
2021/05/03 09:53:07;;;;;;;26.50;7.45;;;13.80;58.80;;;;;;5071298;28;20025;-69
2021/05/03 09:55:39;;;;;;;33.47;6.32;;;13.80;57.30;;;;;;5074015;28;20031;-69
2021/05/03 09:58:14;;;;;;;25.65;6.72;;;13.80;57.20;;;;;;5070772;28;20331;-69
2021/05/03 10:00:55;;;;;;;21.55;5.55;;;13.80;58.50;;;;;;5071746;28;20025;-69
2021/05/03 10:03:38;;;;;;;14.00;4.53;;;13.80;58.20;;;;;;5073426;28;20359;-69
2021/05/03 10:06:10;;;;;;;17.88;4.22;;;13.70;59.00;;;;;;5066084;28;20034;-69
2021/05/03 10:08:37;;;;;;;23.70;6.63;;;13.80;57.40;;;;;;5073161;28;20028;-69
2021/05/03 10:11:09;;;;;;;13.82;5.22;;;13.70;58.90;;;;;;5073878;28;20024;-68
2021/05/03 10:13:38;;;;;;;24.30;5.05;;;13.70;59.10;;;;;;5074359;28;20115;-68
2021/05/03 10:16:06;;;;;;;14.95;4.90;;;13.70;58.70;;;;;;5072244;28;20033;-69
2021/05/03 10:18:37;;;;;;;21.90;6.05;;;13.60;58.90;;;;;;5072977;28;20024;-69
2021/05/03 10:21:10;;;;;;;23.52;5.68;;;13.70;58.60;;;;;;5065118;28;20066;-69
2021/05/03 10:23:39;;;;;;;36.67;5.68;;;13.70;58.60;;;;;;5073506;28;20482;-69
2021/05/03 10:26:06;;;;;;;23.58;5.68;;;13.70;58.70;;;;;;5075352;28;20482;-69
2021/05/03 10:28:55;;;;;;;28.10;6.57;;;13.90;59.00;;;;;;5073988;28;20116;-69
2021/05/03 10:31:23;;;;;;;23.60;4.93;;;13.90;58.50;;;;;;5075118;28;20020;-69
2021/05/03 10:33:50;;;;;;;30.83;5.20;;;13.80;58.00;;;;;;5075068;28;20044;-69
2021/05/03 10:36:37;;;;;;;28.52;5.47;;;13.80;58.30;;;;;;5072270;28;20028;-69
2021/05/03 10:39:29;;;;;;;31.60;5.28;;;13.80;58.30;;;;;;5073029;28;20024;-69
2021/05/03 10:42:13;;;;;;;21.70;6.20;;;13.70;58.50;;;;;;5072485;28;20032;-69
2021/05/03 10:45:09;;;;;;;21.13;4.90;;;13.70;58.60;;;;;;5072079;28;20028;-69
2021/05/03 10:47:45;;;;;;;32.75;6.50;;;13.60;58.60;;;;;;5071142;28;20253;-68
2021/05/03 10:50:35;;;;;;;18.60;5.82;;;13.70;59.50;;;;;;5071245;28;20032;-69
2021/05/03 10:53:24;;;;;;;26.23;5.70;;;13.70;58.40;;;;;;5072532;28;20029;-69
2021/05/03 10:55:52;;;;;;;24.25;5.28;;;13.70;58.90;;;;;;5060454;28;20041;-68
2021/05/03 10:58:19;;;;;;;16.73;5.38;;;13.70;58.60;;;;;;5069044;28;20021;-68
2021/05/03 11:01:02;;;;;;;25.77;5.25;;;13.50;58.20;;;;;;5065704;28;20403;-70
2021/05/03 11:04:03;;;;;;;29.52;7.18;;;13.50;58.80;;;;;;5063213;28;20128;-68
2021/05/03 11:06:49;;;;;;;28.88;7.43;;;13.40;58.40;;;;;;5030266;28;20048;-69
2021/05/03 11:09:28;;;;;;;24.60;5.53;;;13.30;58.70;;;;;;5066230;28;20412;-69
2021/05/03 11:12:06;;;;;;;25.30;5.05;;;13.20;58.60;;;;;;5070593;28;20036;-68
2021/05/03 11:14:34;;;;;;;22.73;5.50;;;13.10;59.40;;;;;;5072979;28;20512;-68
2021/05/03 11:17:16;;;;;;;18.48;6.65;;;13.20;59.30;;;;;;5074512;28;20094;-68
2021/05/03 11:20:13;;;;;;;22.13;6.60;;;13.10;59.70;;;;;;5076983;28;20027;-68
2021/05/03 11:22:47;;;;;;;29.52;7.03;;;13.20;60.10;;;;;;5076890;28;20045;-68
2021/05/03 11:25:25;;;;;;;22.92;6.07;;;13.10;59.20;;;;;;5076653;28;20032;-70
2021/05/03 11:28:00;;;;;;;24.20;6.80;;;12.90;59.90;;;;;;5076592;28;20029;-69
2021/05/03 11:30:49;;;;;;;29.40;6.63;;;12.90;60.70;;;;;;5075625;28;20032;-68
2021/05/03 11:33:20;;;;;;;16.83;6.22;;;13.00;61.00;;;;;;5076522;28;20063;-69
2021/05/03 11:36:03;;;;;;;17.67;5.55;;;13.00;60.90;;;;;;5075802;28;20065;-68
2021/05/03 11:46:35;;;;;;;27.63;6.65;;;12.90;61.10;;;;;;5075906;28;20031;-68
2021/05/03 11:49:13;;;;;;;21.13;5.50;;;13.00;61.70;;;;;;5076316;28;20020;-68
2021/05/03 11:51:51;;;;;;;21.75;5.55;;;12.90;60.70;;;;;;5076243;28;20090;-69
2021/05/03 11:54:25;;;;;;;20.70;4.68;;;12.90;60.90;;;;;;5076350;28;20028;-69
2021/05/03 11:57:00;;;;;;;14.48;5.47;;;12.90;61.20;;;;;;5075480;28;20044;-69
2021/05/03 11:59:27;;;;;;;24.25;5.72;;;12.90;61.50;;;;;;5075767;28;20339;-68
2021/05/03 12:02:09;;;;;;;18.55;4.88;;;12.80;60.80;;;;;;5075931;28;20454;-68
2021/05/03 12:04:44;;;;;;;19.23;4.60;;;12.90;61.90;;;;;;5076540;28;20040;-68
2021/05/03 12:07:25;;;;;;;24.95;5.00;;;12.80;61.30;;;;;;5076112;28;20020;-68
2021/05/03 12:10:19;;;;;;;25.83;5.30;;;12.90;61.20;;;;;;5076088;28;20028;-68
2021/05/03 12:12:53;;;;;;;19.15;6.30;;;12.90;60.90;;;;;;5073112;28;20029;-68
2021/05/03 12:15:22;;;;;;;22.95;5.32;;;13.00;62.40;;;;;;5075295;28;20115;-68
2021/05/03 12:17:49;;;;;;;22.90;4.68;;;12.90;61.20;;;;;;5075947;28;20048;-68
2021/05/03 12:20:21;;;;;;;29.95;6.18;;;12.80;62.50;;;;;;5076247;28;20031;-68
2021/05/03 12:23:02;;;;;;;17.63;6.32;;;12.90;62.10;;;;;;5069304;28;20070;-68
2021/05/03 12:25:37;;;;;;;27.48;5.20;;;12.80;61.70;;;;;;5075756;28;20402;-68
2021/05/03 12:28:14;;;;;;;22.30;5.68;;;12.70;61.90;;;;;;5075455;28;20063;-68
2021/05/03 12:30:42;;;;;;;22.13;5.13;;;12.70;62.10;;;;;;5074913;28;20343;-68
2021/05/03 12:33:15;;;;;;;22.40;6.85;;;12.80;62.70;;;;;;5076638;28;20107;-68
2021/05/03 12:35:42;;;;;;;21.40;5.53;;;12.80;62.10;;;;;;5079906;28;20031;-69
2021/05/03 12:38:25;;;;;;;23.63;5.10;;;12.70;62.10;;;;;;5081039;28;20058;-69
2021/05/03 12:40:53;;;;;;;23.75;6.57;;;12.60;61.50;;;;;;5075361;28;20028;-68
2021/05/03 12:43:29;;;;;;;19.13;4.63;;;12.60;62.40;;;;;;5073756;28;20094;-68
2021/05/03 12:49:25;;;;;;;29.67;6.13;;;12.50;62.60;;;;;;5074575;28;20044;-68
2021/05/03 12:57:23;;;;;;;14.77;5.55;;;12.60;62.70;;;;;;5074709;28;20048;-68
2021/05/03 12:59:56;;;;;;;11.27;4.20;;;12.50;62.00;;;;;;5072969;28;20032;-68
2021/05/03 13:02:37;;;;;;;21.10;4.57;;;12.30;62.80;;;;;;5074171;28;20027;-68
2021/05/03 13:06:07;;;;;;;17.48;4.28;;;12.20;62.40;;;;;;5074765;28;20028;-68
2021/05/03 13:11:15;;;;;;;15.80;4.90;;;12.20;62.90;;;;;;5074855;28;20039;-68
2021/05/03 13:28:07;;;;;;;17.90;5.68;;;12.30;62.60;;;;;;5073747;28;20078;-67
2021/05/03 13:30:36;;;;;;;17.58;4.68;;;12.40;61.90;;;;;;5073488;28;20073;-68
2021/05/03 13:33:03;;;;;;;18.65;4.20;;;12.50;62.60;;;;;;5061459;28;20025;-67
2021/05/03 13:35:29;;;;;;;22.75;6.28;;;12.50;62.20;;;;;;5073644;28;20476;-67
2021/05/03 13:37:56;;;;;;;17.13;4.93;;;12.50;62.30;;;;;;5074026;28;20021;-67
2021/05/03 13:40:22;;;;;;;19.48;4.55;;;12.40;62.20;;;;;;5059110;28;20028;-67
2021/05/03 13:42:52;;;;;;;19.52;6.00;;;12.40;62.40;;;;;;5074096;28;20032;-67
2021/05/03 13:45:26;;;;;;;22.08;6.15;;;12.50;62.30;;;;;;5074479;28;20031;-67
2021/05/03 13:47:53;;;;;;;24.40;6.07;;;12.50;62.40;;;;;;5071019;28;20107;-68